sensor_id;sensor_type;location;lat;lon;timestamp;temperature;humidity
35796;DHT22;21916;52.428;13.302;2022-07-29T00:02:05;17.00;92.90
35796;DHT22;21916;52.428;13.302;2022-07-29T00:04:34;17.00;93.10
35796;DHT22;21916;52.428;13.302;2022-07-29T00:07:00;17.00;93.70
35796;DHT22;21916;52.428;13.302;2022-07-29T00:09:26;17.00;93.40
35796;DHT22;21916;52.428;13.302;2022-07-29T00:11:53;16.90;93.50
35796;DHT22;21916;52.428;13.302;2022-07-29T00:14:20;16.90;93.90
35796;DHT22;21916;52.428;13.302;2022-07-29T00:16:46;16.90;93.90
35796;DHT22;21916;52.428;13.302;2022-07-29T00:19:12;16.90;94.30
35796;DHT22;21916;52.428;13.302;2022-07-29T00:21:38;16.80;94.30
35796;DHT22;21916;52.428;13.302;2022-07-29T00:24:04;16.80;94.70
35796;DHT22;21916;52.428;13.302;2022-07-29T00:26:30;16.70;95.10
35796;DHT22;21916;52.428;13.302;2022-07-29T00:29:01;16.70;95.30
35796;DHT22;21916;52.428;13.302;2022-07-29T00:31:28;16.60;95.60
35796;DHT22;21916;52.428;13.302;2022-07-29T00:33:54;16.60;95.90
35796;DHT22;21916;52.428;13.302;2022-07-29T00:36:20;16.50;96.20
35796;DHT22;21916;52.428;13.302;2022-07-29T00:38:50;16.50;96.70
35796;DHT22;21916;52.428;13.302;2022-07-29T00:41:16;16.50;96.90
35796;DHT22;21916;52.428;13.302;2022-07-29T00:43:42;16.50;97.30
35796;DHT22;21916;52.428;13.302;2022-07-29T00:46:08;16.40;97.70
35796;DHT22;21916;52.428;13.302;2022-07-29T00:48:34;16.50;97.70
35796;DHT22;21916;52.428;13.302;2022-07-29T00:51:02;16.40;98.00
35796;DHT22;21916;52.428;13.302;2022-07-29T00:53:30;16.40;98.30
35796;DHT22;21916;52.428;13.302;2022-07-29T00:55:57;16.40;98.50
35796;DHT22;21916;52.428;13.302;2022-07-29T00:58:24;16.40;99.00
35796;DHT22;21916;52.428;13.302;2022-07-29T01:00:51;16.40;99.00
35796;DHT22;21916;52.428;13.302;2022-07-29T01:03:18;16.30;99.40
35796;DHT22;21916;52.428;13.302;2022-07-29T01:05:45;16.20;99.70
35796;DHT22;21916;52.428;13.302;2022-07-29T01:08:14;16.10;99.90
35796;DHT22;21916;52.428;13.302;2022-07-29T01:10:41;16.10;99.90
35796;DHT22;21916;52.428;13.302;2022-07-29T01:13:09;16.10;99.90
35796;DHT22;21916;52.428;13.302;2022-07-29T01:15:49;16.20;99.90
35796;DHT22;21916;52.428;13.302;2022-07-29T01:18:22;16.10;99.90
35796;DHT22;21916;52.428;13.302;2022-07-29T01:29:45;15.90;99.90
35796;DHT22;21916;52.428;13.302;2022-07-29T01:32:20;15.80;99.90
35796;DHT22;21916;52.428;13.302;2022-07-29T01:34:54;15.80;99.90
35796;DHT22;21916;52.428;13.302;2022-07-29T01:37:48;15.80;99.90
35796;DHT22;21916;52.428;13.302;2022-07-29T01:40:24;15.70;99.90
35796;DHT22;21916;52.428;13.302;2022-07-29T01:42:57;15.80;99.90
35796;DHT22;21916;52.428;13.302;2022-07-29T01:45:28;15.70;99.90
35796;DHT22;21916;52.428;13.302;2022-07-29T01:48:03;15.60;99.90
35796;DHT22;21916;52.428;13.302;2022-07-29T01:50:34;15.60;99.90
35796;DHT22;21916;52.428;13.302;2022-07-29T01:53:08;15.70;99.90
35796;DHT22;21916;52.428;13.302;2022-07-29T01:55:38;15.60;99.90
35796;DHT22;21916;52.428;13.302;2022-07-29T01:58:05;15.60;99.90
35796;DHT22;21916;52.428;13.302;2022-07-29T02:00:33;15.60;99.90
35796;DHT22;21916;52.428;13.302;2022-07-29T02:03:05;15.60;99.90
35796;DHT22;21916;52.428;13.302;2022-07-29T02:05:34;15.60;99.90
35796;DHT22;21916;52.428;13.302;2022-07-29T02:08:02;15.60;99.90
35796;DHT22;21916;52.428;13.302;2022-07-29T02:10:32;15.60;99.90
35796;DHT22;21916;52.428;13.302;2022-07-29T02:12:59;15.60;99.90
35796;DHT22;21916;52.428;13.302;2022-07-29T02:15:29;15.60;99.90
35796;DHT22;21916;52.428;13.302;2022-07-29T02:18:00;15.70;99.90
35796;DHT22;21916;52.428;13.302;2022-07-29T02:20:28;15.60;99.90
35796;DHT22;21916;52.428;13.302;2022-07-29T02:22:55;15.50;99.90
35796;DHT22;21916;52.428;13.302;2022-07-29T02:25:23;15.40;99.90
35796;DHT22;21916;52.428;13.302;2022-07-29T02:27:51;15.50;99.90
35796;DHT22;21916;52.428;13.302;2022-07-29T02:30:18;15.50;99.90
35796;DHT22;21916;52.428;13.302;2022-07-29T02:32:45;15.60;99.90
35796;DHT22;21916;52.428;13.302;2022-07-29T02:35:14;15.60;99.90
35796;DHT22;21916;52.428;13.302;2022-07-29T02:37:41;15.60;99.90
35796;DHT22;21916;52.428;13.302;2022-07-29T02:40:11;15.60;99.90
35796;DHT22;21916;52.428;13.302;2022-07-29T02:42:42;15.60;99.90
35796;DHT22;21916;52.428;13.302;2022-07-29T02:45:10;15.60;99.90
35796;DHT22;21916;52.428;13.302;2022-07-29T02:47:43;15.70;99.90
35796;DHT22;21916;52.428;13.302;2022-07-29T02:50:21;15.70;99.90
35796;DHT22;21916;52.428;13.302;2022-07-29T02:52:58;15.60;99.90
35796;DHT22;21916;52.428;13.302;2022-07-29T02:55:29;15.60;99.90
35796;DHT22;21916;52.428;13.302;2022-07-29T03:00:29;15.70;99.90
35796;DHT22;21916;52.428;13.302;2022-07-29T03:02:58;15.80;99.90
35796;DHT22;21916;52.428;13.302;2022-07-29T03:05:25;15.70;99.90
35796;DHT22;21916;52.428;13.302;2022-07-29T03:07:57;15.70;99.90
35796;DHT22;21916;52.428;13.302;2022-07-29T03:10:25;15.70;99.90
35796;DHT22;21916;52.428;13.302;2022-07-29T03:12:51;15.60;99.90
35796;DHT22;21916;52.428;13.302;2022-07-29T03:15:18;15.60;99.90
35796;DHT22;21916;52.428;13.302;2022-07-29T03:17:45;15.60;99.90
35796;DHT22;21916;52.428;13.302;2022-07-29T03:20:12;15.60;99.90
35796;DHT22;21916;52.428;13.302;2022-07-29T03:22:43;15.60;99.90
35796;DHT22;21916;52.428;13.302;2022-07-29T03:25:13;15.60;99.90
35796;DHT22;21916;52.428;13.302;2022-07-29T03:27:40;15.50;99.90
35796;DHT22;21916;52.428;13.302;2022-07-29T03:30:07;15.50;99.90
35796;DHT22;21916;52.428;13.302;2022-07-29T03:32:34;15.50;99.90
35796;DHT22;21916;52.428;13.302;2022-07-29T03:35:00;15.60;99.90
35796;DHT22;21916;52.428;13.302;2022-07-29T03:37:26;15.60;99.90
35796;DHT22;21916;52.428;13.302;2022-07-29T03:39:55;15.60;99.90
35796;DHT22;21916;52.428;13.302;2022-07-29T03:42:24;15.60;99.90
35796;DHT22;21916;52.428;13.302;2022-07-29T03:44:51;15.60;99.90
35796;DHT22;21916;52.428;13.302;2022-07-29T03:47:22;15.60;99.90
35796;DHT22;21916;52.428;13.302;2022-07-29T03:49:50;15.70;99.90
35796;DHT22;21916;52.428;13.302;2022-07-29T03:52:18;15.60;99.90
35796;DHT22;21916;52.428;13.302;2022-07-29T03:54:44;15.60;99.90
35796;DHT22;21916;52.428;13.302;2022-07-29T03:57:11;15.60;99.90
35796;DHT22;21916;52.428;13.302;2022-07-29T03:59:38;15.60;99.90
35796;DHT22;21916;52.428;13.302;2022-07-29T04:02:05;15.70;99.90
35796;DHT22;21916;52.428;13.302;2022-07-29T04:04:35;15.70;99.90
35796;DHT22;21916;52.428;13.302;2022-07-29T04:07:01;15.80;99.90
35796;DHT22;21916;52.428;13.302;2022-07-29T04:09:27;15.80;99.90
35796;DHT22;21916;52.428;13.302;2022-07-29T04:11:53;15.80;99.90
35796;DHT22;21916;52.428;13.302;2022-07-29T04:14:19;15.80;99.90
35796;DHT22;21916;52.428;13.302;2022-07-29T04:16:49;15.90;99.90
35796;DHT22;21916;52.428;13.302;2022-07-29T04:19:15;15.80;99.90
35796;DHT22;21916;52.428;13.302;2022-07-29T04:21:41;15.90;99.90
35796;DHT22;21916;52.428;13.302;2022-07-29T04:24:07;15.90;99.90
35796;DHT22;21916;52.428;13.302;2022-07-29T04:26:34;15.90;99.90
35796;DHT22;21916;52.428;13.302;2022-07-29T04:29:00;16.00;99.90
35796;DHT22;21916;52.428;13.302;2022-07-29T04:31:26;16.00;99.90
35796;DHT22;21916;52.428;13.302;2022-07-29T04:33:52;16.10;99.90
35796;DHT22;21916;52.428;13.302;2022-07-29T04:36:17;16.10;99.90
35796;DHT22;21916;52.428;13.302;2022-07-29T04:38:43;16.10;99.90
35796;DHT22;21916;52.428;13.302;2022-07-29T04:41:09;16.20;99.90
35796;DHT22;21916;52.428;13.302;2022-07-29T04:43:35;16.10;99.90
35796;DHT22;21916;52.428;13.302;2022-07-29T04:46:03;16.20;99.90
35796;DHT22;21916;52.428;13.302;2022-07-29T04:48:29;16.30;99.90
35796;DHT22;21916;52.428;13.302;2022-07-29T04:50:55;16.40;99.90
35796;DHT22;21916;52.428;13.302;2022-07-29T04:53:22;16.40;99.90
35796;DHT22;21916;52.428;13.302;2022-07-29T04:55:48;16.40;99.90
35796;DHT22;21916;52.428;13.302;2022-07-29T04:58:14;16.50;99.90
35796;DHT22;21916;52.428;13.302;2022-07-29T05:00:39;16.50;99.90
35796;DHT22;21916;52.428;13.302;2022-07-29T05:03:05;16.60;99.90
35796;DHT22;21916;52.428;13.302;2022-07-29T05:05:32;16.60;99.90
35796;DHT22;21916;52.428;13.302;2022-07-29T05:07:57;16.70;99.90
35796;DHT22;21916;52.428;13.302;2022-07-29T05:10:23;16.70;99.90
35796;DHT22;21916;52.428;13.302;2022-07-29T05:12:49;16.80;99.90
35796;DHT22;21916;52.428;13.302;2022-07-29T05:15:15;16.80;99.90
35796;DHT22;21916;52.428;13.302;2022-07-29T05:17:43;16.80;99.90
35796;DHT22;21916;52.428;13.302;2022-07-29T05:20:09;16.80;99.90
35796;DHT22;21916;52.428;13.302;2022-07-29T05:22:35;16.80;99.90
35796;DHT22;21916;52.428;13.302;2022-07-29T05:25:02;16.90;99.90
35796;DHT22;21916;52.428;13.302;2022-07-29T05:27:28;17.00;99.90
35796;DHT22;21916;52.428;13.302;2022-07-29T05:29:54;17.00;99.90
35796;DHT22;21916;52.428;13.302;2022-07-29T05:32:19;17.10;99.90
35796;DHT22;21916;52.428;13.302;2022-07-29T05:34:45;17.10;99.90
35796;DHT22;21916;52.428;13.302;2022-07-29T05:37:11;17.10;99.90
35796;DHT22;21916;52.428;13.302;2022-07-29T05:39:39;17.30;99.90
35796;DHT22;21916;52.428;13.302;2022-07-29T05:42:09;17.30;99.90
35796;DHT22;21916;52.428;13.302;2022-07-29T05:44:39;17.40;99.90
35796;DHT22;21916;52.428;13.302;2022-07-29T05:47:05;17.50;99.90
35796;DHT22;21916;52.428;13.302;2022-07-29T05:49:32;17.60;99.90
35796;DHT22;21916;52.428;13.302;2022-07-29T05:51:58;17.90;99.90
35796;DHT22;21916;52.428;13.302;2022-07-29T05:54:24;18.00;99.90
35796;DHT22;21916;52.428;13.302;2022-07-29T05:56:51;18.10;99.90
35796;DHT22;21916;52.428;13.302;2022-07-29T05:59:17;18.20;99.90
35796;DHT22;21916;52.428;13.302;2022-07-29T06:01:43;18.40;99.90
35796;DHT22;21916;52.428;13.302;2022-07-29T06:04:09;18.40;99.90
35796;DHT22;21916;52.428;13.302;2022-07-29T06:06:35;18.40;99.90
35796;DHT22;21916;52.428;13.302;2022-07-29T06:09:02;18.50;99.90
35796;DHT22;21916;52.428;13.302;2022-07-29T06:11:28;18.70;99.90
35796;DHT22;21916;52.428;13.302;2022-07-29T06:13:54;18.80;99.90
35796;DHT22;21916;52.428;13.302;2022-07-29T06:16:20;18.90;99.90
35796;DHT22;21916;52.428;13.302;2022-07-29T06:18:46;18.90;99.90
35796;DHT22;21916;52.428;13.302;2022-07-29T06:21:11;18.90;99.90
35796;DHT22;21916;52.428;13.302;2022-07-29T06:23:38;19.10;99.90
35796;DHT22;21916;52.428;13.302;2022-07-29T06:26:04;19.20;99.90
35796;DHT22;21916;52.428;13.302;2022-07-29T06:28:31;19.30;99.90
35796;DHT22;21916;52.428;13.302;2022-07-29T06:30:57;19.30;99.90
35796;DHT22;21916;52.428;13.302;2022-07-29T06:33:23;19.30;99.90
35796;DHT22;21916;52.428;13.302;2022-07-29T06:35:48;19.50;99.90
35796;DHT22;21916;52.428;13.302;2022-07-29T06:38:15;19.60;99.90
35796;DHT22;21916;52.428;13.302;2022-07-29T06:40:42;19.70;99.90
35796;DHT22;21916;52.428;13.302;2022-07-29T06:43:34;19.70;99.90
35796;DHT22;21916;52.428;13.302;2022-07-29T06:46:03;19.70;99.90
35796;DHT22;21916;52.428;13.302;2022-07-29T06:48:30;19.70;99.90
35796;DHT22;21916;52.428;13.302;2022-07-29T06:50:56;19.90;99.90
35796;DHT22;21916;52.428;13.302;2022-07-29T06:53:22;20.00;99.80
35796;DHT22;21916;52.428;13.302;2022-07-29T06:55:49;20.00;99.70
35796;DHT22;21916;52.428;13.302;2022-07-29T06:58:15;20.20;99.70
35796;DHT22;21916;52.428;13.302;2022-07-29T07:00:49;20.30;99.20
35796;DHT22;21916;52.428;13.302;2022-07-29T07:03:16;20.50;99.20
35796;DHT22;21916;52.428;13.302;2022-07-29T07:05:42;20.80;99.10
35796;DHT22;21916;52.428;13.302;2022-07-29T07:08:08;21.00;98.50
35796;DHT22;21916;52.428;13.302;2022-07-29T07:10:34;21.10;98.20
35796;DHT22;21916;52.428;13.302;2022-07-29T07:13:00;21.10;97.70
35796;DHT22;21916;52.428;13.302;2022-07-29T07:15:27;21.20;97.60
35796;DHT22;21916;52.428;13.302;2022-07-29T07:17:53;21.30;97.50
35796;DHT22;21916;52.428;13.302;2022-07-29T07:20:19;21.40;97.50
35796;DHT22;21916;52.428;13.302;2022-07-29T07:22:45;21.50;97.30
35796;DHT22;21916;52.428;13.302;2022-07-29T07:25:12;21.60;97.00
35796;DHT22;21916;52.428;13.302;2022-07-29T07:27:38;21.80;96.90
35796;DHT22;21916;52.428;13.302;2022-07-29T07:30:06;22.00;96.50
35796;DHT22;21916;52.428;13.302;2022-07-29T07:32:35;22.40;96.40
35796;DHT22;21916;52.428;13.302;2022-07-29T07:35:03;22.60;96.00
35796;DHT22;21916;52.428;13.302;2022-07-29T07:37:29;22.80;95.60
35796;DHT22;21916;52.428;13.302;2022-07-29T07:39:55;22.90;95.30
35796;DHT22;21916;52.428;13.302;2022-07-29T07:42:21;22.90;95.00
35796;DHT22;21916;52.428;13.302;2022-07-29T07:44:47;22.90;94.60
35796;DHT22;21916;52.428;13.302;2022-07-29T07:47:15;23.00;94.50
35796;DHT22;21916;52.428;13.302;2022-07-29T07:49:52;23.20;94.30
35796;DHT22;21916;52.428;13.302;2022-07-29T07:52:20;23.30;93.60
35796;DHT22;21916;52.428;13.302;2022-07-29T07:54:47;23.40;93.50
35796;DHT22;21916;52.428;13.302;2022-07-29T07:57:14;23.60;92.80
35796;DHT22;21916;52.428;13.302;2022-07-29T07:59:40;23.70;92.80
35796;DHT22;21916;52.428;13.302;2022-07-29T08:02:07;23.80;92.70
35796;DHT22;21916;52.428;13.302;2022-07-29T08:04:35;23.70;92.20
35796;DHT22;21916;52.428;13.302;2022-07-29T08:07:02;23.70;92.70
35796;DHT22;21916;52.428;13.302;2022-07-29T08:09:28;23.70;92.50
35796;DHT22;21916;52.428;13.302;2022-07-29T08:11:55;23.70;92.00
35796;DHT22;21916;52.428;13.302;2022-07-29T08:14:21;23.80;92.20
35796;DHT22;21916;52.428;13.302;2022-07-29T08:16:47;24.00;91.50
35796;DHT22;21916;52.428;13.302;2022-07-29T08:19:13;24.00;91.40
35796;DHT22;21916;52.428;13.302;2022-07-29T08:21:39;24.10;91.50
35796;DHT22;21916;52.428;13.302;2022-07-29T08:24:06;24.30;91.00
35796;DHT22;21916;52.428;13.302;2022-07-29T08:26:50;24.40;90.70
35796;DHT22;21916;52.428;13.302;2022-07-29T08:29:16;24.50;90.60
35796;DHT22;21916;52.428;13.302;2022-07-29T08:31:43;24.40;91.10
35796;DHT22;21916;52.428;13.302;2022-07-29T08:34:09;24.40;90.40
35796;DHT22;21916;52.428;13.302;2022-07-29T08:36:35;24.50;90.30
35796;DHT22;21916;52.428;13.302;2022-07-29T08:39:02;24.60;90.20
35796;DHT22;21916;52.428;13.302;2022-07-29T08:41:28;24.70;88.90
35796;DHT22;21916;52.428;13.302;2022-07-29T08:43:54;24.70;88.30
35796;DHT22;21916;52.428;13.302;2022-07-29T08:46:20;24.70;89.20
35796;DHT22;21916;52.428;13.302;2022-07-29T08:48:47;24.70;88.70
35796;DHT22;21916;52.428;13.302;2022-07-29T08:51:16;24.80;88.10
35796;DHT22;21916;52.428;13.302;2022-07-29T08:53:44;24.80;87.30
35796;DHT22;21916;52.428;13.302;2022-07-29T08:56:14;24.80;87.80
35796;DHT22;21916;52.428;13.302;2022-07-29T08:58:42;24.80;88.10
35796;DHT22;21916;52.428;13.302;2022-07-29T09:01:09;24.60;86.90
35796;DHT22;21916;52.428;13.302;2022-07-29T09:03:37;24.80;87.10
35796;DHT22;21916;52.428;13.302;2022-07-29T09:06:05;25.10;87.00
35796;DHT22;21916;52.428;13.302;2022-07-29T09:08:33;25.60;86.40
35796;DHT22;21916;52.428;13.302;2022-07-29T09:11:01;26.10;84.10
35796;DHT22;21916;52.428;13.302;2022-07-29T09:13:27;26.30;85.10
35796;DHT22;21916;52.428;13.302;2022-07-29T09:15:53;26.40;84.20
35796;DHT22;21916;52.428;13.302;2022-07-29T09:18:35;26.70;83.90
35796;DHT22;21916;52.428;13.302;2022-07-29T09:21:02;26.80;82.90
35796;DHT22;21916;52.428;13.302;2022-07-29T09:24:12;26.80;82.70
35796;DHT22;21916;52.428;13.302;2022-07-29T09:26:45;27.00;81.60
35796;DHT22;21916;52.428;13.302;2022-07-29T09:29:19;27.10;80.90
35796;DHT22;21916;52.428;13.302;2022-07-29T09:31:47;27.20;80.30
35796;DHT22;21916;52.428;13.302;2022-07-29T09:34:16;27.20;78.90
35796;DHT22;21916;52.428;13.302;2022-07-29T09:36:44;27.20;79.10
35796;DHT22;21916;52.428;13.302;2022-07-29T09:39:10;27.30;79.20
35796;DHT22;21916;52.428;13.302;2022-07-29T09:41:49;27.50;78.30
35796;DHT22;21916;52.428;13.302;2022-07-29T09:44:15;27.30;77.80
35796;DHT22;21916;52.428;13.302;2022-07-29T09:47:02;27.50;77.50
35796;DHT22;21916;52.428;13.302;2022-07-29T09:49:36;27.70;76.80
35796;DHT22;21916;52.428;13.302;2022-07-29T09:52:15;27.80;76.10
35796;DHT22;21916;52.428;13.302;2022-07-29T09:54:41;27.80;75.60
35796;DHT22;21916;52.428;13.302;2022-07-29T09:57:09;28.00;74.30
35796;DHT22;21916;52.428;13.302;2022-07-29T10:02:31;28.10;73.20
35796;DHT22;21916;52.428;13.302;2022-07-29T10:04:58;28.20;73.40
35796;DHT22;21916;52.428;13.302;2022-07-29T10:07:24;28.60;73.20
35796;DHT22;21916;52.428;13.302;2022-07-29T10:09:55;29.00;71.80
35796;DHT22;21916;52.428;13.302;2022-07-29T10:12:22;29.20;69.70
35796;DHT22;21916;52.428;13.302;2022-07-29T10:14:49;29.40;68.70
35796;DHT22;21916;52.428;13.302;2022-07-29T10:17:16;29.50;67.80
35796;DHT22;21916;52.428;13.302;2022-07-29T10:19:42;29.20;66.70
35796;DHT22;21916;52.428;13.302;2022-07-29T10:22:10;29.20;66.60
35796;DHT22;21916;52.428;13.302;2022-07-29T10:24:37;29.30;66.40
35796;DHT22;21916;52.428;13.302;2022-07-29T10:27:05;29.30;66.00
35796;DHT22;21916;52.428;13.302;2022-07-29T10:29:31;29.50;66.20
35796;DHT22;21916;52.428;13.302;2022-07-29T10:35:01;30.10;65.20
35796;DHT22;21916;52.428;13.302;2022-07-29T10:37:46;30.50;64.50
35796;DHT22;21916;52.428;13.302;2022-07-29T10:43:25;30.60;62.50
35796;DHT22;21916;52.428;13.302;2022-07-29T10:45:56;30.20;62.10
35796;DHT22;21916;52.428;13.302;2022-07-29T10:48:23;30.00;63.40
35796;DHT22;21916;52.428;13.302;2022-07-29T10:51:03;30.00;63.10
35796;DHT22;21916;52.428;13.302;2022-07-29T11:01:50;29.10;63.10
35796;DHT22;21916;52.428;13.302;2022-07-29T11:04:58;29.10;63.60
35796;DHT22;21916;52.428;13.302;2022-07-29T11:09:31;30.90;62.20
35796;DHT22;21916;52.428;13.302;2022-07-29T11:11:57;32.10;60.30
35796;DHT22;21916;52.428;13.302;2022-07-29T11:17:18;34.80;58.30
35796;DHT22;21916;52.428;13.302;2022-07-29T11:19:44;35.50;56.20
35796;DHT22;21916;52.428;13.302;2022-07-29T11:22:11;36.10;54.90
35796;DHT22;21916;52.428;13.302;2022-07-29T11:24:38;36.60;54.50
35796;DHT22;21916;52.428;13.302;2022-07-29T11:29:40;37.30;52.70
35796;DHT22;21916;52.428;13.302;2022-07-29T11:32:14;38.20;52.10
35796;DHT22;21916;52.428;13.302;2022-07-29T11:34:41;38.50;51.00
35796;DHT22;21916;52.428;13.302;2022-07-29T11:47:24;39.60;49.20
35796;DHT22;21916;52.428;13.302;2022-07-29T11:49:52;40.10;48.80
35796;DHT22;21916;52.428;13.302;2022-07-29T11:52:19;40.90;48.80
35796;DHT22;21916;52.428;13.302;2022-07-29T11:54:47;41.00;48.20
35796;DHT22;21916;52.428;13.302;2022-07-29T11:57:15;40.80;47.70
35796;DHT22;21916;52.428;13.302;2022-07-29T11:59:43;40.50;47.50
35796;DHT22;21916;52.428;13.302;2022-07-29T12:02:10;39.00;47.70
35796;DHT22;21916;52.428;13.302;2022-07-29T12:05:05;37.50;49.20
35796;DHT22;21916;52.428;13.302;2022-07-29T12:07:33;37.30;49.30
35796;DHT22;21916;52.428;13.302;2022-07-29T12:10:00;36.50;49.90
35796;DHT22;21916;52.428;13.302;2022-07-29T12:12:26;36.80;50.60
35796;DHT22;21916;52.428;13.302;2022-07-29T12:14:52;38.10;49.40
35796;DHT22;21916;52.428;13.302;2022-07-29T12:17:31;39.50;49.00
35796;DHT22;21916;52.428;13.302;2022-07-29T12:19:59;40.80;48.40
35796;DHT22;21916;52.428;13.302;2022-07-29T12:22:30;41.70;47.60
35796;DHT22;21916;52.428;13.302;2022-07-29T12:25:17;42.20;47.00
35796;DHT22;21916;52.428;13.302;2022-07-29T12:27:44;42.80;46.30
35796;DHT22;21916;52.428;13.302;2022-07-29T12:30:12;43.30;46.00
35796;DHT22;21916;52.428;13.302;2022-07-29T12:32:59;43.90;45.70
35796;DHT22;21916;52.428;13.302;2022-07-29T12:35:24;44.30;45.00
35796;DHT22;21916;52.428;13.302;2022-07-29T12:37:51;43.80;44.80
35796;DHT22;21916;52.428;13.302;2022-07-29T12:40:18;43.10;44.80
35796;DHT22;21916;52.428;13.302;2022-07-29T12:43:22;42.00;44.70
35796;DHT22;21916;52.428;13.302;2022-07-29T12:45:50;41.80;44.80
35796;DHT22;21916;52.428;13.302;2022-07-29T12:48:17;42.90;44.80
35796;DHT22;21916;52.428;13.302;2022-07-29T12:50:57;43.40;43.90
35796;DHT22;21916;52.428;13.302;2022-07-29T12:53:24;42.60;43.60
35796;DHT22;21916;52.428;13.302;2022-07-29T12:55:51;42.10;44.50
35796;DHT22;21916;52.428;13.302;2022-07-29T12:58:33;41.50;45.10
35796;DHT22;21916;52.428;13.302;2022-07-29T13:01:05;40.80;45.40
35796;DHT22;21916;52.428;13.302;2022-07-29T13:03:43;40.90;45.30
35796;DHT22;21916;52.428;13.302;2022-07-29T13:09:04;41.00;45.00
35796;DHT22;21916;52.428;13.302;2022-07-29T13:11:32;40.30;45.40
35796;DHT22;21916;52.428;13.302;2022-07-29T13:13:58;40.50;45.50
35796;DHT22;21916;52.428;13.302;2022-07-29T13:16:24;41.30;45.60
35796;DHT22;21916;52.428;13.302;2022-07-29T13:19:07;42.50;44.70
35796;DHT22;21916;52.428;13.302;2022-07-29T13:21:34;43.30;43.80
35796;DHT22;21916;52.428;13.302;2022-07-29T13:23:59;42.80;43.90
35796;DHT22;21916;52.428;13.302;2022-07-29T13:26:25;43.20;44.10
35796;DHT22;21916;52.428;13.302;2022-07-29T13:28:51;43.10;44.20
35796;DHT22;21916;52.428;13.302;2022-07-29T13:31:17;43.40;43.70
35796;DHT22;21916;52.428;13.302;2022-07-29T13:33:43;43.70;43.90
35796;DHT22;21916;52.428;13.302;2022-07-29T13:36:09;44.00;43.50
35796;DHT22;21916;52.428;13.302;2022-07-29T13:38:35;44.40;42.90
35796;DHT22;21916;52.428;13.302;2022-07-29T13:41:00;44.80;42.40
35796;DHT22;21916;52.428;13.302;2022-07-29T13:43:26;44.90;42.40
35796;DHT22;21916;52.428;13.302;2022-07-29T13:45:52;45.50;41.80
35796;DHT22;21916;52.428;13.302;2022-07-29T13:48:18;46.20;42.00
35796;DHT22;21916;52.428;13.302;2022-07-29T13:50:44;46.30;41.60
35796;DHT22;21916;52.428;13.302;2022-07-29T13:53:11;45.00;41.70
35796;DHT22;21916;52.428;13.302;2022-07-29T13:55:37;44.60;41.70
35796;DHT22;21916;52.428;13.302;2022-07-29T13:58:03;44.80;42.00
35796;DHT22;21916;52.428;13.302;2022-07-29T14:00:29;44.50;42.40
35796;DHT22;21916;52.428;13.302;2022-07-29T14:02:55;44.70;41.60
35796;DHT22;21916;52.428;13.302;2022-07-29T14:05:24;44.40;41.70
35796;DHT22;21916;52.428;13.302;2022-07-29T14:07:50;45.00;41.80
35796;DHT22;21916;52.428;13.302;2022-07-29T14:10:16;45.00;41.70
35796;DHT22;21916;52.428;13.302;2022-07-29T14:12:42;44.70;41.60
35796;DHT22;21916;52.428;13.302;2022-07-29T14:15:08;44.60;41.90
35796;DHT22;21916;52.428;13.302;2022-07-29T14:17:34;43.60;41.80
35796;DHT22;21916;52.428;13.302;2022-07-29T14:20:00;42.00;42.80
35796;DHT22;21916;52.428;13.302;2022-07-29T14:22:26;41.50;43.00
35796;DHT22;21916;52.428;13.302;2022-07-29T14:24:52;42.10;42.90
35796;DHT22;21916;52.428;13.302;2022-07-29T14:27:18;42.50;42.50
35796;DHT22;21916;52.428;13.302;2022-07-29T14:29:44;42.00;42.30
35796;DHT22;21916;52.428;13.302;2022-07-29T14:32:10;41.70;42.70
35796;DHT22;21916;52.428;13.302;2022-07-29T14:34:37;42.30;42.60
35796;DHT22;21916;52.428;13.302;2022-07-29T14:37:04;42.90;42.20
35796;DHT22;21916;52.428;13.302;2022-07-29T14:39:31;43.40;41.70
35796;DHT22;21916;52.428;13.302;2022-07-29T14:41:57;43.90;41.90
35796;DHT22;21916;52.428;13.302;2022-07-29T14:44:23;44.60;41.30
35796;DHT22;21916;52.428;13.302;2022-07-29T14:46:49;45.00;41.00
35796;DHT22;21916;52.428;13.302;2022-07-29T14:49:15;44.80;40.80
35796;DHT22;21916;52.428;13.302;2022-07-29T14:51:41;44.90;40.90
35796;DHT22;21916;52.428;13.302;2022-07-29T14:54:08;45.50;40.30
35796;DHT22;21916;52.428;13.302;2022-07-29T14:56:34;44.50;39.60
35796;DHT22;21916;52.428;13.302;2022-07-29T14:59:00;44.90;40.40
35796;DHT22;21916;52.428;13.302;2022-07-29T15:01:26;44.50;40.50
35796;DHT22;21916;52.428;13.302;2022-07-29T15:03:52;45.10;40.30
35796;DHT22;21916;52.428;13.302;2022-07-29T15:06:18;45.70;40.00
35796;DHT22;21916;52.428;13.302;2022-07-29T15:08:43;45.60;39.90
35796;DHT22;21916;52.428;13.302;2022-07-29T15:11:09;45.50;40.00
35796;DHT22;21916;52.428;13.302;2022-07-29T15:13:35;45.20;40.00
35796;DHT22;21916;52.428;13.302;2022-07-29T15:16:01;44.00;40.80
35796;DHT22;21916;52.428;13.302;2022-07-29T15:18:27;42.40;41.00
35796;DHT22;21916;52.428;13.302;2022-07-29T15:20:53;40.50;41.40
35796;DHT22;21916;52.428;13.302;2022-07-29T15:23:18;39.40;42.30
35796;DHT22;21916;52.428;13.302;2022-07-29T15:25:44;38.80;43.00
35796;DHT22;21916;52.428;13.302;2022-07-29T15:28:10;39.10;43.00
35796;DHT22;21916;52.428;13.302;2022-07-29T15:30:37;40.10;42.60
35796;DHT22;21916;52.428;13.302;2022-07-29T15:33:07;41.30;42.00
35796;DHT22;21916;52.428;13.302;2022-07-29T15:35:35;42.00;42.10
35796;DHT22;21916;52.428;13.302;2022-07-29T15:38:00;42.70;41.30
35796;DHT22;21916;52.428;13.302;2022-07-29T15:40:27;41.80;40.80
35796;DHT22;21916;52.428;13.302;2022-07-29T15:42:53;39.80;41.70
35796;DHT22;21916;52.428;13.302;2022-07-29T15:45:19;38.30;42.70
35796;DHT22;21916;52.428;13.302;2022-07-29T15:47:45;37.40;43.40
35796;DHT22;21916;52.428;13.302;2022-07-29T15:50:11;37.30;43.90
35796;DHT22;21916;52.428;13.302;2022-07-29T15:52:44;38.40;43.40
35796;DHT22;21916;52.428;13.302;2022-07-29T15:55:11;39.80;42.70
35796;DHT22;21916;52.428;13.302;2022-07-29T15:57:37;40.70;42.10
35796;DHT22;21916;52.428;13.302;2022-07-29T16:00:04;41.40;41.70
35796;DHT22;21916;52.428;13.302;2022-07-29T16:02:33;41.90;41.30
35796;DHT22;21916;52.428;13.302;2022-07-29T16:04:59;42.30;41.00
35796;DHT22;21916;52.428;13.302;2022-07-29T16:07:25;42.20;41.20
35796;DHT22;21916;52.428;13.302;2022-07-29T16:09:51;42.00;41.40
35796;DHT22;21916;52.428;13.302;2022-07-29T16:12:17;41.50;41.50